Sausalito, CA

5:04 AM PDT on August 29, 2014 (GMT -0700)
Metro Oakland International | Change Station
CLOSE
Current Station
Airport
Location: Oakland,
Elevation: 7 ft
Nearby Weather Stations

Elev 7 ft 37.72 °N, 122.23 °W | Updated 11 minutes ago

Overcast
Overcast
63 °F
Feels Like 63 °F
N
10
Wind Variable Wind from WSW

Today
High -- | Low -- °F
--% Chance of Precip.
Yesterday
High -- | Low -- °F
Precip. -- in
6:37 AM 7:43 PM
Waxing Crescent, 14% visible
Pressure 29.95 in
Visibility 10.0 miles
Clouds Overcast 1000 ft
Dew Point 56 °F
Humidity 78%
Rainfall 0.00 in
Snow Depth Not available.
UV 0 out of 12
Pollen 7.40 out of 12
Air Quality Not available.
Flu Activity Not available.
METAR KOAK 291153Z 24009KT 10SM OVC010 17/13 A2995 RMK AO2 SLP141 T01720133 10172 20167 57006 $

More Conditions Fewer Conditions

Pressure 29.95 in
Visibility 10.0 miles
Clouds Overcast 1000 ft
Dew Point 56 °F
Humidity 78%
Rainfall 0.00 in
Snow Depth Not available.
UV 0 out of 12
Pollen 7.40 out of 12
Air Quality Not available.
Flu Activity Not available.
METAR KOAK 291153Z 24009KT 10SM OVC010 17/13 A2995 RMK AO2 SLP141 T01720133 10172 20167 57006 $

More Conditions Fewer Conditions

10-Day Weather Forecast

Almanac

Astronomy

Aug. 29, 2014 Rise Set
Actual Time 6:37 AM PDT 7:43 PM PDT
Civil Twilight 6:10 AM PDT 8:10 PM PDT
Nautical Twilight 5:38 AM PDT 8:42 PM PDT
Astronomical Twilight 5:04 AM PDT 9:16 PM PDT
Moon 10:27 AM PDT 9:49 PM PDT
Length of Visible Light 14h 00m
Length of Day
13h 06m
Tomorrow will be 2m 18s shorter.
Waxing Crescent, 14% of the Moon is Illuminated
Today
Waxing Crescent
Sep 2
First Quarter
Sep 8
Full
Sep 15
Last Quarter
Sep 24
New

Today's Extremes

State Highs State Lows

Community

WunderPhotos

Upload Photos

1,748,214 photos uploaded!

Nearby

Snow Depth

Station Depth Elevation
Echo Peak 0 in 7800 ft
Blue Lakes 0 in 8000 ft
Forestdale Creek 0 in 8029 ft
Rubicon #2 0 in 7500 ft
Squaw Valley 0 in 8200 ft

Earthquake Activity

City Distance Mag. Time & Date
Napa, California 27 miles 2.6 11:57 AM PDT
2014-08-27
The Geysers, California 67 miles 2.6 7:42 AM PDT
2014-08-27
Soledad, California 120 miles 2.6 12:15 PM PDT
2014-08-26
Napa, California 27 miles 2.5 10:56 AM PDT
2014-08-26
Minimum magnitude displayed is 2.5.

Coastal Water Temperatures

Place Temperature
San Francisco, CA 64.9 °F
Richmond, CA 66.9 °F
Port Chicago, CA 69.1 °F

Nearby Weather Stations